< < Back
Terminal Aerodrome Forecast


Current Version              Previous Versions:   1  2  3  4  5  6  7  8  9  

Terminal Aerodrome Forecast

058
FTUS42 KGSP 231122
TAFHKY
TAF
KHKY 231122Z 2312/2412 29003KT P6SM SKC
     FM232300 29006KT P6SM FEW250
     FM240300 30003KT P6SM SCT250=



Latest METAR

538
SAUS70 KWBC 231100 RRD
MTRHKY
METAR KHKY 231053Z 29006KT 10SM CLR 05/03 A3008 RMK AO2 SLP178
T00500028


USA.gov is the U.S. government's official web portal to all federal, state and local government web resources and services.